createdAt,value
2018-12-17T00:00:13.346Z,914.38
2018-12-17T00:01:13.338Z,914.37
2018-12-17T00:02:13.303Z,914.33
2018-12-17T00:03:13.272Z,914.33
2018-12-17T00:05:13.225Z,914.35
2018-12-17T00:06:13.184Z,914.34
2018-12-17T00:07:13.120Z,914.32
2018-12-17T00:08:13.221Z,914.33
2018-12-17T00:09:13.078Z,914.31
2018-12-17T00:10:13.250Z,914.32
2018-12-17T00:11:13.012Z,914.31
2018-12-17T00:12:16.485Z,914.32
2018-12-17T00:13:12.978Z,914.34
2018-12-17T00:14:12.929Z,914.37
2018-12-17T00:15:13.028Z,914.35
2018-12-17T00:16:12.928Z,914.32
2018-12-17T00:17:12.859Z,914.36
2018-12-17T00:18:12.795Z,914.31
2018-12-17T00:19:12.787Z,914.33
2018-12-17T00:20:12.861Z,914.34
2018-12-17T00:21:12.715Z,914.34
2018-12-17T00:22:12.668Z,914.32
2018-12-17T00:23:12.645Z,914.38
2018-12-17T00:24:12.640Z,914.37
2018-12-17T00:25:12.619Z,914.40
2018-12-17T00:26:12.561Z,914.44
2018-12-17T00:27:12.577Z,914.41
2018-12-17T00:28:12.463Z,914.40
2018-12-17T00:29:12.451Z,914.42
2018-12-17T00:30:12.440Z,914.41
2018-12-17T00:31:12.397Z,914.42
2018-12-17T00:32:12.363Z,914.39
2018-12-17T00:33:12.344Z,914.40
2018-12-17T00:34:12.340Z,914.39
2018-12-17T00:35:12.280Z,914.42
2018-12-17T00:36:12.293Z,914.41
2018-12-17T00:37:12.221Z,914.41
2018-12-17T00:38:12.525Z,914.42
2018-12-17T00:39:12.161Z,914.44
2018-12-17T00:40:12.129Z,914.45
2018-12-17T00:41:12.132Z,914.46
2018-12-17T00:42:12.085Z,914.46
2018-12-17T00:43:12.015Z,914.50
2018-12-17T00:44:11.974Z,914.49
2018-12-17T00:45:12.115Z,914.54
2018-12-17T00:46:11.999Z,914.50
2018-12-17T00:47:11.906Z,914.51
2018-12-17T00:48:11.872Z,914.51
2018-12-17T00:49:11.838Z,914.52
2018-12-17T00:50:11.789Z,914.49
2018-12-17T00:51:11.774Z,914.53
2018-12-17T00:52:11.740Z,914.55
2018-12-17T00:53:11.752Z,914.59
2018-12-17T00:54:11.676Z,914.57
2018-12-17T00:55:11.646Z,914.56
2018-12-17T00:56:11.864Z,914.55
2018-12-17T00:57:11.585Z,914.57
2018-12-17T00:58:15.169Z,914.59
2018-12-17T00:59:11.530Z,914.56
2018-12-17T01:00:11.478Z,914.57
2018-12-17T01:01:11.721Z,914.58
2018-12-17T01:02:11.438Z,914.58
2018-12-17T01:03:11.397Z,914.60
2018-12-17T01:04:11.352Z,914.60
2018-12-17T01:05:11.606Z,914.61
2018-12-17T01:06:11.316Z,914.61
2018-12-17T01:07:11.297Z,914.63
2018-12-17T01:08:11.244Z,914.65
2018-12-17T01:09:11.395Z,914.63
2018-12-17T01:10:11.174Z,914.63
2018-12-17T01:11:11.153Z,914.63
2018-12-17T01:12:11.113Z,914.63
2018-12-17T01:13:11.084Z,914.64
2018-12-17T01:14:11.690Z,914.67
2018-12-17T01:15:11.002Z,914.70
2018-12-17T01:16:11.112Z,914.67
2018-12-17T01:17:10.990Z,914.70
2018-12-17T01:18:10.931Z,914.68
2018-12-17T01:19:10.892Z,914.74
2018-12-17T01:20:10.849Z,914.69
2018-12-17T01:21:10.822Z,914.74
2018-12-17T01:22:10.818Z,914.73
2018-12-17T01:23:10.769Z,914.77
2018-12-17T01:24:10.744Z,914.76
2018-12-17T01:25:10.727Z,914.77
2018-12-17T01:26:10.663Z,914.78
2018-12-17T01:27:10.638Z,914.78
2018-12-17T01:28:10.613Z,914.83
2018-12-17T01:29:10.579Z,914.82
2018-12-17T01:30:10.642Z,914.82
2018-12-17T01:31:10.513Z,914.79
2018-12-17T01:32:10.470Z,914.82
2018-12-17T01:33:10.441Z,914.89
2018-12-17T01:34:10.403Z,914.91
2018-12-17T01:35:10.383Z,914.91
2018-12-17T01:36:10.337Z,914.90
2018-12-17T01:37:10.318Z,914.93
2018-12-17T01:38:10.277Z,914.89
2018-12-17T01:39:10.254Z,914.85
2018-12-17T01:40:10.252Z,914.90
2018-12-17T01:41:10.403Z,914.88
2018-12-17T01:42:10.186Z,914.83
2018-12-17T01:43:10.123Z,914.78
2018-12-17T01:44:10.087Z,914.77
2018-12-17T01:45:10.070Z,914.78
2018-12-17T01:46:10.019Z,914.76
2018-12-17T01:47:09.981Z,914.75
2018-12-17T01:48:09.963Z,914.80
2018-12-17T01:49:09.986Z,914.77
2018-12-17T01:50:09.904Z,914.78
2018-12-17T01:51:09.870Z,914.77
2018-12-17T01:52:09.852Z,914.75
2018-12-17T01:53:09.807Z,914.76
2018-12-17T01:54:09.791Z,914.72
2018-12-17T01:55:09.733Z,914.72
2018-12-17T01:56:09.695Z,914.73
2018-12-17T01:57:09.661Z,914.73
2018-12-17T01:58:09.638Z,914.73
2018-12-17T01:59:09.612Z,914.71
2018-12-17T02:00:09.589Z,914.74
2018-12-17T02:01:09.539Z,914.71
2018-12-17T02:02:09.531Z,914.68
2018-12-17T02:03:09.841Z,914.73
2018-12-17T02:04:09.461Z,914.72
2018-12-17T02:05:09.442Z,914.70
2018-12-17T02:06:09.395Z,914.72
2018-12-17T02:07:09.440Z,914.72
2018-12-17T02:08:09.593Z,914.74
2018-12-17T02:09:09.301Z,914.74
2018-12-17T02:10:09.254Z,914.73
2018-12-17T02:11:09.223Z,914.72
2018-12-17T02:12:09.202Z,914.73
2018-12-17T02:13:09.319Z,914.66
2018-12-17T02:14:09.130Z,914.67
2018-12-17T02:15:09.113Z,914.62
2018-12-17T02:16:09.075Z,914.65
2018-12-17T02:17:09.042Z,914.59
2018-12-17T02:18:09.090Z,914.60
2018-12-17T02:19:08.977Z,914.60
2018-12-17T02:20:08.952Z,914.59
2018-12-17T02:21:08.945Z,914.59
2018-12-17T02:22:08.898Z,914.62
2018-12-17T02:23:08.858Z,914.59
2018-12-17T02:24:08.898Z,914.59
2018-12-17T02:25:08.777Z,914.54
2018-12-17T02:26:08.771Z,914.57
2018-12-17T02:27:08.727Z,914.60
2018-12-17T02:28:08.712Z,914.58
2018-12-17T02:29:08.679Z,914.56
2018-12-17T02:30:08.625Z,914.60
2018-12-17T02:31:08.582Z,914.59
2018-12-17T02:32:08.541Z,914.55
2018-12-17T02:33:08.520Z,914.58
2018-12-17T02:34:08.519Z,914.58
2018-12-17T02:35:08.460Z,914.59
2018-12-17T02:36:08.427Z,914.60
2018-12-17T02:37:08.398Z,914.61
2018-12-17T02:38:08.367Z,914.58
2018-12-17T02:39:08.348Z,914.57
2018-12-17T02:41:08.635Z,914.54
2018-12-17T02:42:08.273Z,914.55
2018-12-17T02:43:08.217Z,914.52
2018-12-17T02:44:08.179Z,914.56
2018-12-17T02:45:08.145Z,914.53
2018-12-17T02:46:08.114Z,914.55
2018-12-17T02:47:08.281Z,914.54
2018-12-17T02:48:08.033Z,914.50
2018-12-17T02:49:08.022Z,914.51
2018-12-17T02:50:07.995Z,914.46
2018-12-17T02:51:07.938Z,914.45
2018-12-17T02:52:08.062Z,914.47
2018-12-17T02:53:07.902Z,914.47
2018-12-17T02:54:07.879Z,914.43
2018-12-17T02:55:07.816Z,914.44
2018-12-17T02:56:07.789Z,914.40
2018-12-17T02:57:07.781Z,914.41
2018-12-17T02:58:07.731Z,914.38
2018-12-17T02:59:07.683Z,914.42
2018-12-17T03:00:07.668Z,914.43
2018-12-17T03:01:07.627Z,914.43
2018-12-17T03:02:07.606Z,914.44
2018-12-17T03:03:07.640Z,914.44
2018-12-17T03:04:07.518Z,914.44
2018-12-17T03:05:07.494Z,914.44
2018-12-17T03:06:07.486Z,914.41
2018-12-17T03:07:07.434Z,914.42
2018-12-17T03:08:07.404Z,914.41
2018-12-17T03:09:07.383Z,914.43
2018-12-17T03:10:07.379Z,914.40
2018-12-17T03:11:07.300Z,914.42
2018-12-17T03:12:08.365Z,914.37
2018-12-17T03:13:07.244Z,914.38
2018-12-17T03:14:07.222Z,914.34
2018-12-17T03:15:07.314Z,914.34
2018-12-17T03:16:07.133Z,914.31
2018-12-17T03:17:07.111Z,914.30
2018-12-17T03:18:07.085Z,914.26
2018-12-17T03:19:07.248Z,914.25
2018-12-17T03:20:07.028Z,914.22
2018-12-17T03:21:07.020Z,914.26
2018-12-17T03:22:06.953Z,914.25
2018-12-17T03:23:06.942Z,914.21
2018-12-17T03:24:07.047Z,914.25
2018-12-17T03:25:06.854Z,914.26
2018-12-17T03:26:06.822Z,914.24
2018-12-17T03:27:06.801Z,914.25
2018-12-17T03:28:06.758Z,914.20
2018-12-17T03:29:06.744Z,914.21
2018-12-17T03:30:06.734Z,914.20
2018-12-17T03:31:06.653Z,914.21
2018-12-17T03:32:06.629Z,914.22
2018-12-17T03:33:06.593Z,914.20
2018-12-17T03:34:06.563Z,914.16
2018-12-17T03:35:06.559Z,914.14
2018-12-17T03:36:06.513Z,914.08
2018-12-17T03:37:06.484Z,914.06
2018-12-17T03:38:06.441Z,914.04
2018-12-17T03:39:06.397Z,914.08
2018-12-17T03:40:06.581Z,914.07
2018-12-17T03:41:06.352Z,914.06
2018-12-17T03:42:06.323Z,914.06
2018-12-17T03:43:06.262Z,914.05
2018-12-17T03:44:06.241Z,914.03
2018-12-17T03:45:06.652Z,914.03
2018-12-17T03:46:06.177Z,914.01
2018-12-17T03:47:06.149Z,914.03
2018-12-17T03:48:06.112Z,914.03
2018-12-17T03:49:06.087Z,913.98
2018-12-17T03:50:06.048Z,913.93
2018-12-17T03:51:06.156Z,913.96
2018-12-17T03:52:05.976Z,913.91
2018-12-17T03:53:05.962Z,913.90
2018-12-17T03:54:05.912Z,913.87
2018-12-17T03:55:05.888Z,913.86
2018-12-17T03:56:05.851Z,913.87
2018-12-17T03:57:05.808Z,913.87
2018-12-17T03:58:05.786Z,913.91
2018-12-17T03:59:05.746Z,913.87
2018-12-17T04:00:05.745Z,913.87
2018-12-17T04:01:05.710Z,913.85
2018-12-17T04:02:05.646Z,913.84
2018-12-17T04:03:05.636Z,913.79
2018-12-17T04:04:05.635Z,913.80
2018-12-17T04:05:05.550Z,913.76
2018-12-17T04:06:05.541Z,913.80
2018-12-17T04:07:05.503Z,913.79
2018-12-17T04:08:05.475Z,913.80
2018-12-17T04:09:05.441Z,913.78
2018-12-17T04:10:05.398Z,913.75
2018-12-17T04:11:05.358Z,913.81
2018-12-17T04:12:05.787Z,913.81
2018-12-17T04:13:05.319Z,913.75
2018-12-17T04:14:05.260Z,913.76
2018-12-17T04:15:05.219Z,913.76
2018-12-17T04:16:05.197Z,913.74
2018-12-17T04:17:05.164Z,913.75
2018-12-17T04:18:05.209Z,913.71
2018-12-17T04:19:05.109Z,913.68
2018-12-17T04:20:05.058Z,913.71
2018-12-17T04:21:05.045Z,913.70
2018-12-17T04:22:05.018Z,913.69
2018-12-17T04:23:04.984Z,913.69
2018-12-17T04:24:04.951Z,913.72
2018-12-17T04:25:04.916Z,913.73
2018-12-17T04:26:04.880Z,913.72
2018-12-17T04:27:04.847Z,913.72
2018-12-17T04:28:04.815Z,913.73
2018-12-17T04:29:06.918Z,913.71
2018-12-17T04:30:04.749Z,913.71
2018-12-17T04:31:04.718Z,913.73
2018-12-17T04:32:04.693Z,913.70
2018-12-17T04:33:04.672Z,913.66
2018-12-17T04:34:04.629Z,913.65
2018-12-17T04:35:04.597Z,913.68
2018-12-17T04:36:04.549Z,913.68
2018-12-17T04:37:04.531Z,913.64
2018-12-17T04:38:04.488Z,913.69
2018-12-17T04:39:04.913Z,913.68
2018-12-17T04:40:04.417Z,913.68
2018-12-17T04:41:04.407Z,913.68
2018-12-17T04:42:04.360Z,913.69
2018-12-17T04:43:04.359Z,913.66
2018-12-17T04:44:04.312Z,913.73
2018-12-17T04:45:04.265Z,913.73
2018-12-17T04:46:04.251Z,913.75
2018-12-17T04:47:04.206Z,913.75
2018-12-17T04:48:04.184Z,913.75
2018-12-17T04:49:04.140Z,913.77
2018-12-17T04:50:04.102Z,913.73
2018-12-17T04:51:04.137Z,913.74
2018-12-17T04:52:04.032Z,913.75
2018-12-17T04:53:04.011Z,913.74
2018-12-17T04:54:03.990Z,913.77
2018-12-17T04:55:04.121Z,913.72
2018-12-17T04:56:03.904Z,913.81
2018-12-17T04:57:03.859Z,913.75
2018-12-17T04:58:03.830Z,913.78
2018-12-17T04:59:03.824Z,913.78
2018-12-17T05:00:03.923Z,913.81
2018-12-17T05:01:03.743Z,913.83
2018-12-17T05:02:05.473Z,913.83
2018-12-17T05:03:03.662Z,913.86
2018-12-17T05:04:03.652Z,913.85
2018-12-17T05:05:03.607Z,913.85
2018-12-17T05:06:03.572Z,913.82
2018-12-17T05:07:03.597Z,913.81
2018-12-17T05:08:03.522Z,913.82
2018-12-17T05:09:03.482Z,913.79
2018-12-17T05:10:03.639Z,913.81
2018-12-17T05:11:03.411Z,913.79
2018-12-17T05:12:03.368Z,913.83
2018-12-17T05:13:03.339Z,913.80
2018-12-17T05:14:03.306Z,913.81
2018-12-17T05:15:03.857Z,913.83
2018-12-17T05:16:03.267Z,913.81
2018-12-17T05:17:03.265Z,913.81
2018-12-17T05:18:03.180Z,913.79
2018-12-17T05:19:03.152Z,913.81
2018-12-17T05:20:03.108Z,913.81
2018-12-17T05:21:03.099Z,913.79
2018-12-17T05:22:03.051Z,913.81
2018-12-17T05:23:03.025Z,913.82
2018-12-17T05:24:03.055Z,913.81
2018-12-17T05:25:02.964Z,913.80
2018-12-17T05:26:02.934Z,913.82
2018-12-17T05:27:02.894Z,913.80
2018-12-17T05:28:02.870Z,913.79
2018-12-17T05:29:02.894Z,913.77
2018-12-17T05:30:02.780Z,913.77
2018-12-17T05:31:02.748Z,913.77
2018-12-17T05:32:02.753Z,913.75
2018-12-17T05:33:02.687Z,913.75
2018-12-17T05:34:02.672Z,913.78
2018-12-17T05:35:02.634Z,913.79
2018-12-17T05:36:03.039Z,913.74
2018-12-17T05:37:02.558Z,913.73
2018-12-17T05:38:02.527Z,913.77
2018-12-17T05:39:02.522Z,913.77
2018-12-17T05:40:02.472Z,913.78
2018-12-17T05:41:02.621Z,913.77
2018-12-17T05:42:02.410Z,913.78
2018-12-17T05:43:02.365Z,913.76
2018-12-17T05:44:02.484Z,913.81
2018-12-17T05:45:02.306Z,913.82
2018-12-17T05:46:02.261Z,913.81
2018-12-17T05:47:02.230Z,913.82
2018-12-17T05:48:02.211Z,913.80
2018-12-17T05:49:03.453Z,913.77
2018-12-17T05:50:02.125Z,913.73
2018-12-17T05:51:02.099Z,913.75
2018-12-17T05:52:02.563Z,913.71
2018-12-17T05:53:02.056Z,913.77
2018-12-17T05:54:02.221Z,913.76
2018-12-17T05:55:01.981Z,913.78
2018-12-17T05:56:01.941Z,913.81
2018-12-17T05:57:01.966Z,913.83
2018-12-17T05:58:02.258Z,913.79
2018-12-17T05:59:01.869Z,913.85
2018-12-17T06:00:01.816Z,913.83
2018-12-17T06:01:01.820Z,913.84
2018-12-17T06:02:01.744Z,913.81
2018-12-17T06:03:01.745Z,913.84
2018-12-17T06:05:01.631Z,913.82
2018-12-17T06:06:01.600Z,913.82
2018-12-17T06:07:01.646Z,913.79
2018-12-17T06:08:01.545Z,913.79
2018-12-17T06:09:01.559Z,913.74
2018-12-17T06:10:01.476Z,913.80
2018-12-17T06:11:01.453Z,913.79
2018-12-17T06:12:01.457Z,913.82
2018-12-17T06:13:01.378Z,913.82
2018-12-17T06:14:01.342Z,913.82
2018-12-17T06:15:01.771Z,913.83
2018-12-17T06:16:01.292Z,913.83
2018-12-17T06:17:01.255Z,913.84
2018-12-17T06:18:01.212Z,913.82
2018-12-17T06:19:01.181Z,913.85
2018-12-17T06:20:01.159Z,913.81
2018-12-17T06:21:01.105Z,913.82
2018-12-17T06:22:01.065Z,913.84
2018-12-17T06:23:01.058Z,913.82
2018-12-17T06:24:01.011Z,913.85
2018-12-17T06:25:00.992Z,913.87
2018-12-17T06:26:00.944Z,913.84
2018-12-17T06:27:00.921Z,913.86
2018-12-17T06:28:00.893Z,913.87
2018-12-17T06:29:00.838Z,913.84
2018-12-17T06:30:00.821Z,913.90
2018-12-17T06:31:00.772Z,913.85
2018-12-17T06:32:00.749Z,913.89
2018-12-17T06:33:00.711Z,913.88
2018-12-17T06:34:00.670Z,913.88
2018-12-17T06:35:00.852Z,913.88
2018-12-17T06:36:00.629Z,913.84
2018-12-17T06:37:01.129Z,913.82
2018-12-17T06:38:00.565Z,913.79
2018-12-17T06:39:00.535Z,913.80
2018-12-17T06:40:00.489Z,913.78
2018-12-17T06:41:00.447Z,913.80
2018-12-17T06:42:00.711Z,913.85
2018-12-17T06:43:00.391Z,913.85
2018-12-17T06:44:00.360Z,913.85
2018-12-17T06:45:00.340Z,913.89
2018-12-17T06:46:00.280Z,913.90
2018-12-17T06:47:00.271Z,913.91
2018-12-17T06:48:00.362Z,913.91
2018-12-17T06:49:00.191Z,913.95
2018-12-17T06:50:00.165Z,913.90
2018-12-17T06:51:00.130Z,913.91
2018-12-17T06:52:00.092Z,913.92
2018-12-17T06:53:00.059Z,913.93
2018-12-17T06:54:00.026Z,913.94
2018-12-17T06:54:59.984Z,913.91
2018-12-17T06:55:59.953Z,913.89
2018-12-17T06:56:59.921Z,913.88
2018-12-17T06:57:59.902Z,913.89
2018-12-17T06:59:00.155Z,913.92
2018-12-17T06:59:59.816Z,913.90
2018-12-17T07:00:59.792Z,913.87
2018-12-17T07:01:59.762Z,913.83
2018-12-17T07:02:59.719Z,913.84
2018-12-17T07:03:59.849Z,913.86
2018-12-17T07:04:59.686Z,913.86
2018-12-17T07:05:59.631Z,913.87
2018-12-17T07:06:59.600Z,913.85
2018-12-17T07:07:59.551Z,913.88
2018-12-17T07:08:59.512Z,913.88
2018-12-17T07:09:59.493Z,913.90
2018-12-17T07:10:59.451Z,913.89
2018-12-17T07:11:59.437Z,913.89
2018-12-17T07:12:59.389Z,913.86
2018-12-17T07:14:00.199Z,913.87
2018-12-17T07:14:59.346Z,913.89
2018-12-17T07:15:59.301Z,913.83
2018-12-17T07:16:59.254Z,913.84
2018-12-17T07:17:59.221Z,913.85
2018-12-17T07:18:59.210Z,913.80
2018-12-17T07:19:59.170Z,913.82
2018-12-17T07:20:59.120Z,913.82
2018-12-17T07:21:59.098Z,913.81
2018-12-17T07:22:59.049Z,913.78
2018-12-17T07:23:59.027Z,913.79
2018-12-17T07:24:59.013Z,913.79
2018-12-17T07:25:58.963Z,913.77
2018-12-17T07:26:58.930Z,913.80
2018-12-17T07:27:58.879Z,913.78
2018-12-17T07:28:58.869Z,913.78
2018-12-17T07:29:58.836Z,913.73
2018-12-17T07:30:58.790Z,913.75
2018-12-17T07:31:58.762Z,913.77
2018-12-17T07:32:58.713Z,913.79
2018-12-17T07:33:58.692Z,913.76
2018-12-17T07:34:58.671Z,913.78
2018-12-17T07:35:58.620Z,913.77
2018-12-17T07:36:58.599Z,913.76
2018-12-17T07:37:58.552Z,913.82
2018-12-17T07:38:58.524Z,913.84
2018-12-17T07:39:58.488Z,913.85
2018-12-17T07:40:58.474Z,913.85
2018-12-17T07:41:58.456Z,913.92
2018-12-17T07:42:58.397Z,913.91
2018-12-17T07:43:58.394Z,913.94
2018-12-17T07:44:58.334Z,913.95
2018-12-17T07:45:58.291Z,913.93
2018-12-17T07:46:58.257Z,913.94
2018-12-17T07:47:58.217Z,913.94
2018-12-17T07:48:58.198Z,913.94
2018-12-17T07:49:58.179Z,913.95
2018-12-17T07:50:58.123Z,913.93
2018-12-17T07:51:58.097Z,913.94
2018-12-17T07:52:58.063Z,913.94
2018-12-17T07:53:58.033Z,913.95
2018-12-17T07:54:58.004Z,913.92
2018-12-17T07:55:57.962Z,913.91
2018-12-17T07:56:57.929Z,913.95
2018-12-17T07:57:57.894Z,913.93
2018-12-17T07:58:57.864Z,913.96
2018-12-17T07:59:57.815Z,913.98
2018-12-17T08:00:57.798Z,913.97
2018-12-17T08:01:59.124Z,914.02
2018-12-17T08:02:57.722Z,914.04
2018-12-17T08:03:57.690Z,914.03
2018-12-17T08:04:57.657Z,914.04
2018-12-17T08:05:57.617Z,914.05
2018-12-17T08:06:57.588Z,914.07
2018-12-17T08:07:57.552Z,914.06
2018-12-17T08:08:57.543Z,914.09
2018-12-17T08:09:57.502Z,914.06
2018-12-17T08:10:57.472Z,914.02
2018-12-17T08:11:57.437Z,914.05
2018-12-17T08:12:57.543Z,914.08
2018-12-17T08:13:57.351Z,914.08
2018-12-17T08:14:57.320Z,914.05
2018-12-17T08:15:57.304Z,914.12
2018-12-17T08:16:57.256Z,914.11
2018-12-17T08:17:57.232Z,914.09
2018-12-17T08:18:57.230Z,914.13
2018-12-17T08:19:57.165Z,914.15
2018-12-17T08:20:57.116Z,914.13
2018-12-17T08:21:57.115Z,914.16
2018-12-17T08:22:57.064Z,914.17
2018-12-17T08:23:57.225Z,914.18
2018-12-17T08:24:57.049Z,914.21
2018-12-17T08:25:56.964Z,914.25
2018-12-17T08:26:56.932Z,914.26
2018-12-17T08:27:56.889Z,914.31
2018-12-17T08:28:57.010Z,914.35
2018-12-17T08:30:03.754Z,914.37
2018-12-17T08:30:56.792Z,914.39
2018-12-17T08:31:56.768Z,914.39
2018-12-17T08:32:56.780Z,914.38
2018-12-17T08:33:56.707Z,914.41
2018-12-17T08:34:56.658Z,914.41
2018-12-17T08:35:56.631Z,914.42
2018-12-17T08:36:56.619Z,914.46
2018-12-17T08:37:56.557Z,914.48
2018-12-17T08:38:56.537Z,914.49
2018-12-17T08:40:56.454Z,914.51
2018-12-17T08:41:56.423Z,914.49
2018-12-17T08:42:56.385Z,914.50
2018-12-17T08:43:56.344Z,914.50
2018-12-17T08:44:56.323Z,914.49
2018-12-17T08:45:56.284Z,914.51
2018-12-17T08:46:56.263Z,914.50
2018-12-17T08:47:56.227Z,914.50
2018-12-17T08:48:56.204Z,914.52
2018-12-17T08:49:56.733Z,914.53
2018-12-17T08:50:56.122Z,914.57
2018-12-17T08:51:56.301Z,914.65
2018-12-17T08:52:56.061Z,914.67
2018-12-17T08:53:56.045Z,914.71
2018-12-17T08:54:55.994Z,914.73
2018-12-17T08:55:55.954Z,914.73
2018-12-17T08:56:55.958Z,914.75
2018-12-17T08:57:55.895Z,914.76
2018-12-17T08:58:55.871Z,914.71
2018-12-17T08:59:55.838Z,914.74
2018-12-17T09:00:55.787Z,914.76
2018-12-17T09:01:55.760Z,914.77
2018-12-17T09:02:55.707Z,914.77
2018-12-17T09:03:55.684Z,914.76
2018-12-17T09:04:55.656Z,914.81
2018-12-17T09:05:55.631Z,914.81
2018-12-17T09:06:55.593Z,914.78
2018-12-17T09:07:55.557Z,914.83
2018-12-17T09:08:55.519Z,914.83
2018-12-17T09:09:55.938Z,914.86
2018-12-17T09:10:55.441Z,914.87
2018-12-17T09:11:55.414Z,914.90
2018-12-17T09:12:55.389Z,914.90
2018-12-17T09:13:55.351Z,914.96
2018-12-17T09:14:55.560Z,914.97
2018-12-17T09:15:55.471Z,915.03
2018-12-17T09:16:55.254Z,915.06
2018-12-17T09:17:55.211Z,915.06
2018-12-17T09:18:55.174Z,915.08
2018-12-17T09:19:55.163Z,915.13
2018-12-17T09:20:55.438Z,915.14
2018-12-17T09:21:55.093Z,915.14
2018-12-17T09:22:55.058Z,915.13
2018-12-17T09:23:55.011Z,915.11
2018-12-17T09:24:54.992Z,915.11
2018-12-17T09:25:54.954Z,915.15
2018-12-17T09:26:54.908Z,915.16
2018-12-17T09:27:54.882Z,915.14
2018-12-17T09:28:54.859Z,915.15
2018-12-17T09:29:54.822Z,915.15
2018-12-17T09:30:54.789Z,915.16
2018-12-17T09:31:54.751Z,915.20
2018-12-17T09:32:54.722Z,915.19
2018-12-17T09:33:54.698Z,915.16
2018-12-17T09:34:54.659Z,915.16
2018-12-17T09:35:54.604Z,915.18
2018-12-17T09:36:54.741Z,915.17
2018-12-17T09:37:54.650Z,915.18
2018-12-17T09:38:54.528Z,915.18
2018-12-17T09:39:54.487Z,915.21
2018-12-17T09:40:54.464Z,915.24
2018-12-17T09:41:54.417Z,915.27
2018-12-17T09:42:54.382Z,915.25
2018-12-17T09:43:54.343Z,915.30
2018-12-17T09:44:54.341Z,915.32
2018-12-17T09:45:54.303Z,915.30
2018-12-17T09:46:54.247Z,915.30
2018-12-17T09:48:54.481Z,915.32
2018-12-17T09:49:54.150Z,915.30
2018-12-17T09:50:54.122Z,915.32
2018-12-17T09:51:54.092Z,915.33
2018-12-17T09:52:54.053Z,915.33
2018-12-17T09:53:54.169Z,915.30
2018-12-17T09:54:53.990Z,915.37
2018-12-17T09:55:53.943Z,915.36
2018-12-17T09:56:53.916Z,915.36
2018-12-17T09:57:53.885Z,915.35
2018-12-17T09:59:53.818Z,915.39
2018-12-17T10:00:53.801Z,915.40
2018-12-17T10:01:53.743Z,915.37
2018-12-17T10:02:53.734Z,915.35
2018-12-17T10:03:53.693Z,915.38
2018-12-17T10:04:53.661Z,915.40
2018-12-17T10:05:53.621Z,915.39
2018-12-17T10:06:53.600Z,915.40
2018-12-17T10:07:53.675Z,915.41
2018-12-17T10:08:53.534Z,915.38
2018-12-17T10:09:53.643Z,915.37
2018-12-17T10:10:53.477Z,915.36
2018-12-17T10:11:53.445Z,915.36
2018-12-17T10:12:53.404Z,915.37
2018-12-17T10:13:53.393Z,915.38
2018-12-17T10:14:53.342Z,915.39
2018-12-17T10:15:53.289Z,915.39
2018-12-17T10:16:53.260Z,915.40
2018-12-17T10:17:53.244Z,915.41
2018-12-17T10:18:53.225Z,915.44
2018-12-17T10:19:53.179Z,915.44
2018-12-17T10:20:53.142Z,915.50
2018-12-17T10:21:53.109Z,915.49
2018-12-17T10:22:53.070Z,915.50
2018-12-17T10:23:53.030Z,915.46
2018-12-17T10:24:53.010Z,915.46
2018-12-17T10:25:52.978Z,915.51
2018-12-17T10:26:52.949Z,915.53
2018-12-17T10:27:52.912Z,915.54
2018-12-17T10:28:52.872Z,915.53
2018-12-17T10:29:52.844Z,915.55
2018-12-17T10:30:52.814Z,915.59
2018-12-17T10:31:53.175Z,915.61
2018-12-17T10:32:52.748Z,915.59
2018-12-17T10:33:52.701Z,915.62
2018-12-17T10:34:52.704Z,915.65
2018-12-17T10:35:52.659Z,915.64
2018-12-17T10:36:52.773Z,915.66
2018-12-17T10:37:52.588Z,915.67
2018-12-17T10:38:52.551Z,915.69
2018-12-17T10:39:52.518Z,915.64
2018-12-17T10:40:52.495Z,915.64
2018-12-17T10:41:52.463Z,915.66
2018-12-17T10:42:52.592Z,915.65
2018-12-17T10:43:52.420Z,915.69
2018-12-17T10:44:52.365Z,915.73
2018-12-17T10:45:52.330Z,915.76
2018-12-17T10:46:52.300Z,915.75
2018-12-17T10:47:52.274Z,915.77
2018-12-17T10:48:52.683Z,915.75
2018-12-17T10:49:52.192Z,915.76
2018-12-17T10:50:52.181Z,915.73
2018-12-17T10:51:52.136Z,915.73
2018-12-17T10:52:52.106Z,915.73
2018-12-17T10:53:52.240Z,915.76
2018-12-17T10:54:52.044Z,915.77
2018-12-17T10:55:52.009Z,915.79
2018-12-17T10:56:51.987Z,915.81
2018-12-17T10:57:51.963Z,915.82
2018-12-17T10:58:51.908Z,915.84
2018-12-17T10:59:51.881Z,915.88
2018-12-17T11:00:51.850Z,915.90
2018-12-17T11:01:51.827Z,915.91
2018-12-17T11:02:51.792Z,915.87
2018-12-17T11:03:51.772Z,915.88
2018-12-17T11:04:51.871Z,915.87
2018-12-17T11:05:51.696Z,915.84
2018-12-17T11:06:51.673Z,915.84
2018-12-17T11:07:51.827Z,915.84
2018-12-17T11:08:51.611Z,915.82
2018-12-17T11:09:51.576Z,915.84
2018-12-17T11:10:51.531Z,915.86
2018-12-17T11:11:51.502Z,915.88
2018-12-17T11:12:51.985Z,915.89
2018-12-17T11:13:51.440Z,915.85
2018-12-17T11:14:51.418Z,915.87
2018-12-17T11:15:51.394Z,915.90
2018-12-17T11:16:51.347Z,915.86
2018-12-17T11:17:51.316Z,915.86
2018-12-17T11:18:51.496Z,915.86
2018-12-17T11:19:51.251Z,915.87
2018-12-17T11:20:51.234Z,915.84
2018-12-17T11:21:51.197Z,915.90
2018-12-17T11:22:51.170Z,915.93
2018-12-17T11:24:51.137Z,915.92
2018-12-17T11:25:51.071Z,915.97
2018-12-17T11:26:51.051Z,916.02
2018-12-17T11:27:51.018Z,915.99
2018-12-17T11:28:51.198Z,916.00
2018-12-17T11:29:50.961Z,916.03
2018-12-17T11:30:50.931Z,915.97
2018-12-17T11:31:50.904Z,915.98
2018-12-17T11:32:50.876Z,915.97
2018-12-17T11:33:51.068Z,916.00
2018-12-17T11:34:50.812Z,916.00
2018-12-17T11:35:50.778Z,915.98
2018-12-17T11:36:50.794Z,916.03
2018-12-17T11:37:50.721Z,916.05
2018-12-17T11:38:50.696Z,916.05
2018-12-17T11:39:50.648Z,916.06
2018-12-17T11:40:50.647Z,916.06
2018-12-17T11:41:50.579Z,916.09
2018-12-17T11:42:50.568Z,916.11
2018-12-17T11:43:50.541Z,916.16
2018-12-17T11:44:50.663Z,916.17
2018-12-17T11:45:50.458Z,916.18
2018-12-17T11:46:50.430Z,916.22
2018-12-17T11:47:50.393Z,916.24
2018-12-17T11:48:50.368Z,916.25
2018-12-17T11:49:50.360Z,916.24
2018-12-17T11:50:50.357Z,916.26
2018-12-17T11:51:50.302Z,916.27
2018-12-17T11:52:50.255Z,916.32
2018-12-17T11:53:50.244Z,916.33
2018-12-17T11:54:50.194Z,916.31
2018-12-17T11:55:50.197Z,916.31
2018-12-17T11:56:50.133Z,916.32
2018-12-17T11:57:50.153Z,916.31
2018-12-17T11:58:50.082Z,916.32
2018-12-17T11:59:50.059Z,916.30
2018-12-17T12:00:53.771Z,916.29
2018-12-17T12:01:49.992Z,916.31
2018-12-17T12:02:49.947Z,916.32
2018-12-17T12:03:49.924Z,916.33
2018-12-17T12:04:49.985Z,916.33
2018-12-17T12:05:49.868Z,916.34
2018-12-17T12:06:49.850Z,916.29
2018-12-17T12:07:49.823Z,916.29
2018-12-17T12:08:49.777Z,916.30
2018-12-17T12:09:49.743Z,916.27
2018-12-17T12:10:50.011Z,916.24
2018-12-17T12:11:49.689Z,916.30
2018-12-17T12:12:49.644Z,916.31
2018-12-17T12:13:49.617Z,916.33
2018-12-17T12:14:49.604Z,916.34
2018-12-17T12:15:49.715Z,916.39
2018-12-17T12:16:49.551Z,916.34
2018-12-17T12:17:49.534Z,916.36
2018-12-17T12:18:49.491Z,916.38
2018-12-17T12:19:49.460Z,916.37
2018-12-17T12:20:49.416Z,916.45
2018-12-17T12:21:49.842Z,916.45
2018-12-17T12:22:49.353Z,916.43
2018-12-17T12:23:49.337Z,916.42
2018-12-17T12:24:49.329Z,916.42
2018-12-17T12:25:49.286Z,916.41
2018-12-17T12:26:49.231Z,916.42
2018-12-17T12:27:49.466Z,916.42
2018-12-17T12:28:49.221Z,916.41
2018-12-17T12:29:49.152Z,916.41
2018-12-17T12:30:49.132Z,916.43
2018-12-17T12:31:49.111Z,916.45
2018-12-17T12:32:49.067Z,916.47
2018-12-17T12:33:49.050Z,916.49
2018-12-17T12:34:49.003Z,916.47